Time;durP1;ratioP1;P1;durP2;ratioP2;P2;SDS_P1;SDS_P2;PMS_P1;PMS_P2;Temp;Humidity;BMP_temperature;BMP_pressure;BME280_temperature;BME280_humidity;BME280_pressure;Samples;Min_cycle;Max_cycle;Signal;HPM_P1;HPM_P2
2022/01/26 00:05:54;;;;;;;22.25;10.63;;;;;;;2.17;100.00;102236.41;6037263;29;20092;-87
2022/01/26 00:08:57;;;;;;;15.27;7.88;;;;;;;2.24;100.00;102240.56;6037424;29;20508;-86
2022/01/26 00:11:59;;;;;;;19.65;8.57;;;;;;;2.32;100.00;102236.16;6046382;29;20064;-86
2022/01/26 00:15:01;;;;;;;20.55;9.95;;;;;;;2.30;100.00;102247.25;6037909;29;20720;-87
2022/01/26 00:18:03;;;;;;;20.90;9.32;;;;;;;2.24;100.00;102239.72;6036394;29;20049;-87
2022/01/26 00:21:15;;;;;;;22.77;8.73;;;;;;;2.14;100.00;102237.28;6035832;29;20149;-87
2022/01/26 00:27:35;;;;;;;18.17;8.30;;;;;;;2.22;100.00;102237.16;6041705;29;20048;-87
2022/01/26 00:40:43;;;;;;;15.18;7.57;;;;;;;2.21;100.00;102234.63;6032422;29;20045;-87
2022/01/26 00:43:52;;;;;;;17.80;8.80;;;;;;;2.21;100.00;102226.97;6042237;29;20050;-87
2022/01/26 00:46:54;;;;;;;22.75;9.30;;;;;;;2.11;100.00;102221.16;6036991;29;20057;-87
2022/01/26 00:50:00;;;;;;;20.92;7.97;;;;;;;2.07;100.00;102219.53;6038892;29;20050;-86
2022/01/26 00:53:04;;;;;;;25.20;8.50;;;;;;;2.11;100.00;102213.50;6035895;29;20060;-86
2022/01/26 00:56:06;;;;;;;21.60;8.73;;;;;;;2.15;100.00;102204.94;6042857;29;20111;-86
2022/01/26 00:59:10;;;;;;;21.95;9.10;;;;;;;2.09;100.00;102205.03;6038855;29;20086;-86
2022/01/26 01:02:12;;;;;;;22.33;8.52;;;;;;;2.08;100.00;102206.72;6036408;29;20045;-86
2022/01/26 01:05:33;;;;;;;20.75;8.20;;;;;;;2.12;100.00;102204.97;6036779;29;20526;-87
2022/01/26 01:08:35;;;;;;;22.02;8.82;;;;;;;2.10;100.00;102204.16;6033775;29;20049;-86
2022/01/26 01:11:37;;;;;;;22.38;8.45;;;;;;;2.12;100.00;102202.44;6041362;29;20087;-86
2022/01/26 01:14:42;;;;;;;20.50;8.65;;;;;;;2.05;100.00;102204.22;6055937;29;20042;-86
2022/01/26 01:17:50;;;;;;;19.45;8.23;;;;;;;2.01;100.00;102211.97;6036451;29;20057;-86
2022/01/26 01:27:57;;;;;;;21.00;9.75;;;;;;;2.07;100.00;102201.66;6030342;29;20048;-86
2022/01/26 01:31:10;;;;;;;18.38;8.38;;;;;;;1.99;100.00;102206.03;6037860;29;20048;-86
2022/01/26 01:34:14;;;;;;;17.80;8.18;;;;;;;1.96;100.00;102204.38;6033288;29;20045;-86
2022/01/26 01:37:17;;;;;;;17.13;7.93;;;;;;;1.98;100.00;102206.91;6027425;29;20042;-86
2022/01/26 01:40:19;;;;;;;20.02;9.25;;;;;;;1.98;100.00;102212.03;6030684;29;20053;-86
2022/01/26 01:43:22;;;;;;;17.80;7.95;;;;;;;2.02;100.00;102206.84;6036032;29;20045;-86
2022/01/26 01:46:27;;;;;;;22.60;8.70;;;;;;;1.96;100.00;102195.88;6030790;29;20083;-86
2022/01/26 01:49:29;;;;;;;21.45;8.13;;;;;;;1.96;100.00;102189.06;6032817;29;20037;-86
2022/01/26 01:52:31;;;;;;;20.45;8.02;;;;;;;1.92;100.00;102190.00;6041446;29;20048;-86
2022/01/26 01:55:34;;;;;;;17.38;8.02;;;;;;;1.97;100.00;102184.81;6036078;29;20041;-86
2022/01/26 01:58:37;;;;;;;21.10;7.80;;;;;;;2.05;100.00;102186.34;6028366;29;20056;-86
2022/01/26 02:01:53;;;;;;;19.58;8.38;;;;;;;2.03;100.00;102182.16;6028610;29;20053;-86
2022/01/26 02:04:55;;;;;;;19.25;7.78;;;;;;;1.98;100.00;102181.38;6027295;29;20050;-86
2022/01/26 02:07:59;;;;;;;21.48;8.07;;;;;;;1.90;100.00;102182.34;6036879;29;20474;-87
2022/01/26 02:11:03;;;;;;;17.90;7.72;;;;;;;1.87;100.00;102179.84;6033039;29;20052;-86
2022/01/26 02:14:12;;;;;;;18.95;8.77;;;;;;;1.89;100.00;102167.91;6043359;29;20049;-87
2022/01/26 02:51:29;;;;;;;14.93;7.35;;;;;;;1.88;100.00;102121.97;6035762;29;20128;-86
2022/01/26 02:54:46;;;;;;;;;;;;;;;1.88;100.00;102119.41;6038868;29;20546;-86
2022/01/26 03:08:04;;;;;;;19.35;7.22;;;;;;;1.88;100.00;102115.13;6038253;29;20139;-86
2022/01/26 03:11:17;;;;;;;20.15;7.82;;;;;;;1.81;100.00;102100.78;6043319;29;20048;-86
2022/01/26 03:20:31;;;;;;;23.65;8.40;;;;;;;1.82;100.00;102105.03;6033187;29;20053;-87
2022/01/26 03:34:08;;;;;;;21.98;9.02;;;;;;;1.91;100.00;102107.44;5970750;29;20123;-86
2022/01/26 03:37:10;;;;;;;19.63;8.90;;;;;;;1.89;100.00;102104.06;5986875;29;20468;-86
2022/01/26 03:40:15;;;;;;;20.70;8.52;;;;;;;1.86;100.00;102093.91;6047786;29;20504;-86
2022/01/26 03:43:17;;;;;;;21.15;8.63;;;;;;;1.91;100.00;102098.91;6047357;29;20049;-86
2022/01/26 03:46:19;;;;;;;19.85;8.32;;;;;;;1.87;100.00;102104.97;6044447;29;20053;-86
2022/01/26 03:49:21;;;;;;;21.60;8.75;;;;;;;1.80;100.00;102104.22;6044334;29;20537;-86
2022/01/26 03:52:24;;;;;;;21.25;8.27;;;;;;;1.72;100.00;102099.25;6044847;29;20056;-86
2022/01/26 03:55:26;;;;;;;21.88;7.82;;;;;;;1.81;100.00;102113.53;6044250;29;20826;-86
2022/01/26 03:58:28;;;;;;;17.88;8.05;;;;;;;1.75;100.00;102121.31;6038477;29;20049;-86
2022/01/26 04:01:31;;;;;;;21.02;8.02;;;;;;;1.75;100.00;102126.44;6040041;29;20052;-86
2022/01/26 04:04:41;;;;;;;23.83;9.07;;;;;;;1.72;100.00;102123.94;6064973;29;20045;-86
2022/01/26 04:07:45;;;;;;;25.27;10.80;;;;;;;1.70;100.00;102116.28;6047530;29;20045;-86
2022/01/26 04:13:50;;;;;;;24.58;9.85;;;;;;;1.81;100.00;102131.41;6045373;29;20091;-86
2022/01/26 04:16:52;;;;;;;20.85;9.18;;;;;;;1.72;100.00;102126.50;6048787;29;20044;-86
2022/01/26 04:19:57;;;;;;;23.75;8.95;;;;;;;1.84;100.00;102136.50;6051348;29;20072;-86
2022/01/26 04:29:52;;;;;;;19.35;8.48;;;;;;;1.70;100.00;102118.84;6045313;29;20049;-86
2022/01/26 04:32:59;;;;;;;21.20;9.02;;;;;;;1.71;100.00;102117.13;6048253;29;20177;-86
2022/01/26 04:36:05;;;;;;;25.25;10.05;;;;;;;1.58;100.00;102098.63;6047419;29;20847;-86
2022/01/26 04:39:12;;;;;;;25.92;9.88;;;;;;;1.60;100.00;102088.41;6049666;29;20049;-86
2022/01/26 04:42:52;;;;;;;31.30;10.15;;;;;;;1.71;100.00;102084.81;6047284;29;20048;-86
2022/01/26 04:45:42;;;;;;;26.23;9.85;;;;;;;1.73;100.00;102084.75;6039759;29;20064;-86
2022/01/26 04:48:44;;;;;;;24.00;11.15;;;;;;;1.71;100.00;102082.25;6046750;29;20534;-86
2022/01/26 04:51:46;;;;;;;27.77;11.07;;;;;;;1.62;100.00;102089.22;6049725;29;20045;-86
2022/01/26 04:54:49;;;;;;;31.10;11.10;;;;;;;1.66;100.00;102093.38;6045382;29;20037;-86
2022/01/26 04:57:51;;;;;;;27.83;11.77;;;;;;;1.62;100.00;102096.88;6036179;29;20053;-86
2022/01/26 05:00:53;;;;;;;37.25;14.32;;;;;;;1.71;100.00;102107.78;6044184;29;20059;-86
2022/01/26 05:03:55;;;;;;;36.55;13.90;;;;;;;1.73;100.00;102095.81;6046543;29;20053;-86
2022/01/26 05:06:58;;;;;;;39.58;15.77;;;;;;;1.80;100.00;102113.59;6059504;29;20053;-86
2022/01/26 05:10:06;;;;;;;40.88;16.23;;;;;;;1.69;100.00;102116.31;6057597;29;20052;-86
2022/01/26 05:13:14;;;;;;;42.35;15.85;;;;;;;1.69;100.00;102114.63;6045800;29;20124;-86
2022/01/26 05:16:16;;;;;;;39.47;15.40;;;;;;;1.62;100.00;102107.91;6044025;29;20081;-86
2022/01/26 05:19:18;;;;;;;46.10;15.85;;;;;;;1.73;100.00;102098.38;6048287;29;20057;-86
2022/01/26 05:22:20;;;;;;;46.58;17.10;;;;;;;1.65;100.00;102092.56;6047137;29;20085;-86
2022/01/26 05:25:22;;;;;;;51.25;18.42;;;;;;;1.66;100.00;102096.78;6038990;29;20143;-86
2022/01/26 05:28:24;;;;;;;48.47;18.25;;;;;;;1.64;100.00;102090.00;6035335;29;20050;-86
2022/01/26 05:31:27;;;;;;;55.10;17.98;;;;;;;1.65;100.00;102090.00;6027836;29;20049;-86
2022/01/26 05:34:29;;;;;;;57.05;19.58;;;;;;;1.65;100.00;102087.44;6034880;29;20430;-86
2022/01/26 05:37:32;;;;;;;47.03;18.23;;;;;;;1.72;100.00;102083.09;6036337;29;20078;-86
2022/01/26 05:40:34;;;;;;;57.42;21.08;;;;;;;1.59;100.00;102079.91;6031201;29;20514;-86
2022/01/26 05:43:37;;;;;;;56.42;20.33;;;;;;;1.59;100.00;102086.69;6042947;29;20052;-86
2022/01/26 05:46:44;;;;;;;57.15;19.92;;;;;;;1.60;100.00;102084.13;6046871;29;20041;-86
2022/01/26 05:49:46;;;;;;;48.10;18.63;;;;;;;1.69;100.00;102078.88;6042252;29;20097;-86
2022/01/26 05:52:50;;;;;;;50.70;18.83;;;;;;;1.70;100.00;102079.72;6050386;29;20053;-86
2022/01/26 05:55:56;;;;;;;57.70;18.77;;;;;;;1.54;100.00;102065.50;6037687;29;20060;-86
2022/01/26 05:58:58;;;;;;;56.53;18.63;;;;;;;1.59;100.00;102049.28;6027257;29;20178;-86
2022/01/26 06:02:00;;;;;;;51.05;18.45;;;;;;;1.57;100.00;102057.84;6040916;29;20144;-86
2022/01/26 06:05:02;;;;;;;49.22;16.42;;;;;;;1.51;100.00;102064.69;6032049;29;20049;-86
2022/01/26 06:08:04;;;;;;;54.00;18.30;;;;;;;1.48;100.00;102052.00;6042164;29;20064;-86
2022/01/26 06:11:07;;;;;;;50.70;17.38;;;;;;;1.57;100.00;102056.13;6046612;29;20052;-86
2022/01/26 06:14:09;;;;;;;49.75;16.05;;;;;;;1.44;100.00;102058.03;6040650;29;20487;-86
2022/01/26 06:17:11;;;;;;;46.10;15.73;;;;;;;1.56;100.00;102058.69;6046599;29;20096;-86
2022/01/26 06:20:13;;;;;;;46.33;17.15;;;;;;;1.45;100.00;102064.81;6035529;29;20107;-86
2022/01/26 06:23:15;;;;;;;49.92;16.50;;;;;;;1.49;100.00;102061.34;6043033;29;20056;-86
2022/01/26 06:26:17;;;;;;;55.40;17.17;;;;;;;1.36;100.00;102059.84;6035578;29;20040;-86
2022/01/26 06:29:19;;;;;;;54.97;17.40;;;;;;;1.29;100.00;102056.56;6036349;29;20068;-86
2022/01/26 06:32:21;;;;;;;55.25;18.38;;;;;;;1.27;100.00;102050.66;6047944;29;20140;-86
2022/01/26 06:35:23;;;;;;;66.05;20.30;;;;;;;1.24;100.00;102060.91;6035736;29;20049;-86
2022/01/26 06:38:28;;;;;;;56.58;18.98;;;;;;;1.25;100.00;102066.84;6031826;29;20052;-86
2022/01/26 06:41:30;;;;;;;61.60;19.63;;;;;;;1.31;100.00;102078.66;6035033;29;20049;-86
2022/01/26 06:44:36;;;;;;;63.13;20.67;;;;;;;1.23;100.00;102068.56;6035018;29;20465;-86
2022/01/26 06:51:00;;;;;;;63.72;21.30;;;;;;;1.24;100.00;102070.22;6037249;29;20057;-86
2022/01/26 06:54:15;;;;;;;61.30;18.67;;;;;;;1.16;100.00;102060.16;6043485;29;20072;-86
2022/01/26 06:57:17;;;;;;;62.95;20.00;;;;;;;1.06;100.00;102056.06;6035247;29;20044;-86
2022/01/26 07:00:19;;;;;;;59.97;21.90;;;;;;;1.06;100.00;102066.25;6039538;29;20057;-86
2022/01/26 07:03:21;;;;;;;60.55;20.33;;;;;;;1.14;100.00;102082.28;6044673;29;20045;-86
2022/01/26 07:06:23;;;;;;;65.00;21.15;;;;;;;1.18;100.00;102089.03;6039680;29;20045;-86
2022/01/26 07:09:25;;;;;;;59.08;17.98;;;;;;;1.19;100.00;102093.28;6042821;29;20053;-86
2022/01/26 07:12:27;;;;;;;62.55;19.20;;;;;;;1.10;100.00;102084.91;6039203;29;20053;-86
2022/01/26 07:22:10;;;;;;;72.13;21.65;;;;;;;1.10;100.00;102023.72;6048181;29;20057;-86
2022/01/26 07:25:12;;;;;;;64.55;20.92;;;;;;;1.05;100.00;102019.53;6033660;29;20045;-86
2022/01/26 07:28:15;;;;;;;68.68;20.02;;;;;;;1.08;100.00;102023.72;6029772;29;20045;-86
2022/01/26 07:31:17;;;;;;;63.03;18.50;;;;;;;1.06;100.00;102031.41;6040306;29;20038;-86
2022/01/26 07:34:23;;;;;;;74.53;23.45;;;;;;;1.15;100.00;102029.59;6035298;29;20045;-86
2022/01/26 07:37:25;;;;;;;61.03;19.67;;;;;;;1.06;100.00;102023.75;6043446;29;20051;-86
2022/01/26 07:40:27;;;;;;;63.40;19.65;;;;;;;1.21;100.00;102042.22;6051501;29;20077;-86
2022/01/26 07:43:29;;;;;;;62.63;21.55;;;;;;;1.18;100.00;102043.13;6041722;29;21084;-86
2022/01/26 07:46:39;;;;;;;65.93;21.45;;;;;;;1.21;100.00;102054.97;6043370;29;20044;-86
2022/01/26 07:49:41;;;;;;;66.95;21.98;;;;;;;1.04;100.00;102062.88;6035904;29;20128;-86
2022/01/26 07:52:43;;;;;;;80.25;22.83;;;;;;;1.19;100.00;102051.63;6051449;29;20404;-86
2022/01/26 07:55:48;;;;;;;64.07;20.40;;;;;;;1.16;100.00;102044.00;6051507;29;20831;-86
2022/01/26 07:58:50;;;;;;;63.53;19.60;;;;;;;1.29;100.00;102040.41;6036220;29;20064;-86
2022/01/26 08:01:51;;;;;;;64.43;20.83;;;;;;;1.36;100.00;102051.34;6056892;29;20422;-86
2022/01/26 08:04:54;;;;;;;68.90;22.05;;;;;;;1.35;100.00;102047.13;6033602;29;20057;-86
2022/01/26 08:07:56;;;;;;;68.50;22.08;;;;;;;1.34;100.00;102055.63;6051465;29;20444;-86
2022/01/26 08:11:00;;;;;;;77.88;23.08;;;;;;;1.35;100.00;102042.88;6047306;29;20128;-86
2022/01/26 08:14:02;;;;;;;70.63;22.60;;;;;;;1.37;100.00;102055.59;6042919;29;20038;-86
2022/01/26 08:17:05;;;;;;;70.85;24.52;;;;;;;1.44;100.00;102055.47;6041757;29;20056;-86
2022/01/26 08:20:10;;;;;;;79.72;24.42;;;;;;;1.40;100.00;102074.25;6045063;29;20048;-86
2022/01/26 08:23:12;;;;;;;81.38;26.17;;;;;;;1.31;100.00;102059.06;6050720;29;20060;-87
2022/01/26 08:26:20;;;;;;;77.80;24.95;;;;;;;1.35;100.00;102065.81;6043766;29;20056;-86
2022/01/26 08:29:28;;;;;;;80.60;24.92;;;;;;;1.22;100.00;102067.72;6061260;29;20041;-86
2022/01/26 08:32:30;;;;;;;88.68;27.88;;;;;;;1.22;100.00;102064.34;6045615;29;20057;-86
2022/01/26 08:35:33;;;;;;;101.53;29.70;;;;;;;1.25;100.00;102072.78;6040425;29;20601;-86
2022/01/26 08:38:36;;;;;;;89.57;27.88;;;;;;;1.20;100.00;102073.72;6045452;29;20052;-86
2022/01/26 08:41:39;;;;;;;89.68;28.50;;;;;;;1.14;100.00;102072.06;6030625;29;20049;-86
2022/01/26 08:44:41;;;;;;;86.50;28.05;;;;;;;1.20;100.00;102077.09;6050234;29;20045;-86
2022/01/26 08:47:43;;;;;;;91.85;29.73;;;;;;;1.05;100.00;102074.78;6052702;29;20045;-86
2022/01/26 08:50:45;;;;;;;95.85;28.27;;;;;;;1.11;100.00;102089.16;6047470;29;20045;-85
2022/01/26 08:53:47;;;;;;;104.95;34.42;;;;;;;1.15;100.00;102088.25;6053291;29;20566;-86
2022/01/26 08:56:51;;;;;;;99.53;30.98;;;;;;;1.20;100.00;102082.22;6047085;29;20053;-86
2022/01/26 09:03:54;;;;;;;106.53;34.37;;;;;;;1.17;100.00;102089.91;6052370;29;20042;-86
2022/01/26 09:06:59;;;;;;;105.03;31.40;;;;;;;1.10;100.00;102077.28;6051453;29;20297;-86
2022/01/26 09:10:03;;;;;;;101.80;30.95;;;;;;;1.07;100.00;102079.00;6048730;29;20052;-86
2022/01/26 09:13:06;;;;;;;111.28;34.97;;;;;;;1.01;100.00;102079.06;6063399;29;20052;-85
2022/01/26 09:16:08;;;;;;;103.95;32.13;;;;;;;1.11;100.00;102095.06;6050186;29;20072;-85
2022/01/26 09:19:24;;;;;;;113.55;33.67;;;;;;;1.15;100.00;102089.09;6045416;29;20049;-86
2022/01/26 09:22:27;;;;;;;93.70;28.92;;;;;;;1.14;100.00;102100.13;6041225;29;20116;-85
2022/01/26 09:25:50;;;;;;;102.25;28.30;;;;;;;1.14;100.00;102094.19;6051424;29;20487;-85
2022/01/26 09:28:52;;;;;;;90.25;27.73;;;;;;;0.98;100.00;102094.41;6039631;29;20174;-85
2022/01/26 09:31:55;;;;;;;91.75;26.38;;;;;;;0.99;100.00;102093.53;6047366;29;20052;-85
2022/01/26 09:35:00;;;;;;;85.70;26.02;;;;;;;1.01;100.00;102084.16;6049260;29;20423;-85
2022/01/26 09:42:08;;;;;;;84.47;27.15;;;;;;;0.99;100.00;102103.72;6050779;29;20057;-85
2022/01/26 09:45:11;;;;;;;91.90;25.85;;;;;;;1.01;100.00;102098.63;6034995;29;20520;-85
2022/01/26 09:48:13;;;;;;;86.07;25.70;;;;;;;0.98;100.00;102099.50;6048511;29;20542;-86
2022/01/26 09:55:33;;;;;;;95.13;27.55;;;;;;;0.99;100.00;102110.53;6047215;29;20052;-85
2022/01/26 09:58:41;;;;;;;96.63;27.40;;;;;;;1.03;100.00;102107.09;6037339;29;20112;-85
2022/01/26 10:01:51;;;;;;;88.03;25.95;;;;;;;1.09;100.00;102119.75;6035264;29;20056;-86
2022/01/26 10:05:57;;;;;;;82.13;25.90;;;;;;;1.13;100.00;102102.72;6046543;29;20047;-85
2022/01/26 10:09:28;;;;;;;83.95;25.38;;;;;;;1.15;100.00;102101.00;6043423;29;20622;-85
2022/01/26 10:19:20;;;;;;;81.93;24.48;;;;;;;1.35;100.00;102093.88;6042736;29;20096;-85
2022/01/26 10:22:36;;;;;;;77.38;24.45;;;;;;;1.51;100.00;102092.75;6043490;29;20491;-85
2022/01/26 10:25:39;;;;;;;81.15;25.05;;;;;;;1.76;100.00;102100.03;6045935;29;20132;-85
2022/01/26 10:28:59;;;;;;;79.75;24.50;;;;;;;1.80;100.00;102086.34;6040364;29;20109;-85
2022/01/26 10:32:20;;;;;;;76.63;23.17;;;;;;;1.97;100.00;102092.88;6030905;29;20052;-85
2022/01/26 10:35:22;;;;;;;82.68;25.60;;;;;;;1.94;100.00;102094.63;6039585;29;22585;-85
2022/01/26 10:38:24;;;;;;;73.13;23.02;;;;;;;1.96;100.00;102091.19;6032456;29;20052;-85
2022/01/26 10:41:26;;;;;;;80.93;23.48;;;;;;;1.90;100.00;102092.13;6046855;29;20060;-85
2022/01/26 10:45:03;;;;;;;79.30;26.55;;;;;;;1.93;100.00;102092.06;6041676;29;20069;-86
2022/01/26 10:54:50;;;;;;;86.18;26.63;;;;;;;1.80;100.00;102088.06;6034605;29;20048;-86
2022/01/26 10:57:53;;;;;;;72.70;23.90;;;;;;;1.88;100.00;102094.72;6034445;29;20045;-86
2022/01/26 11:04:33;;;;;;;86.88;26.42;;;;;;;2.00;100.00;102077.50;6025350;29;20050;-86
2022/01/26 11:07:40;;;;;;;73.53;25.42;;;;;;;2.03;100.00;102069.78;6036975;29;20507;-86
2022/01/26 11:10:45;;;;;;;79.28;24.35;;;;;;;2.08;100.00;102067.97;6029317;29;20052;-86
2022/01/26 11:14:28;;;;;;;80.18;25.10;;;;;;;2.05;100.00;102065.47;6035397;29;20060;-86
2022/01/26 11:17:43;;;;;;;77.55;26.25;;;;;;;2.11;100.00;102068.78;6044564;29;20048;-86
2022/01/26 11:20:52;;;;;;;81.97;25.25;;;;;;;2.11;100.00;102071.31;6039336;29;20093;-86
2022/01/26 11:29:31;;;;;;;76.72;26.50;;;;;;;1.95;100.00;102072.47;6038230;29;20499;-86
2022/01/26 11:32:37;;;;;;;84.07;26.77;;;;;;;1.94;100.00;102084.41;6041060;29;20057;-86
2022/01/26 11:35:44;;;;;;;83.30;27.75;;;;;;;1.88;100.00;102069.16;6029684;29;20041;-86
2022/01/26 11:45:18;;;;;;;85.43;28.30;;;;;;;2.08;100.00;102070.53;6034263;29;20053;-86
2022/01/26 11:53:00;;;;;;;83.28;26.83;;;;;;;2.08;100.00;102066.25;6053777;29;20124;-86
2022/01/26 11:56:13;;;;;;;84.93;28.70;;;;;;;1.99;100.00;102053.69;6042372;29;20405;-86
2022/01/26 11:59:21;;;;;;;90.13;28.17;;;;;;;2.03;100.00;102037.41;6040718;29;20060;-86
2022/01/26 12:02:54;;;;;;;79.60;25.85;;;;;;;2.11;100.00;102021.94;6044862;29;20502;-86
2022/01/26 12:05:58;;;;;;;83.05;27.48;;;;;;;2.07;100.00;102021.16;6046140;29;20046;-86
2022/01/26 12:09:10;;;;;;;83.30;25.95;;;;;;;2.09;100.00;102005.81;6044202;29;20063;-86
2022/01/26 12:12:17;;;;;;;77.60;26.00;;;;;;;2.13;100.00;101997.22;6030660;29;20049;-86
2022/01/26 12:15:26;;;;;;;73.10;25.92;;;;;;;2.33;100.00;101997.63;6033867;29;20049;-86
2022/01/26 12:44:12;;;;;;;96.97;28.38;;;;;;;2.12;100.00;101975.09;6042420;29;20063;-86
2022/01/26 12:47:15;;;;;;;86.13;27.83;;;;;;;2.22;100.00;101965.53;6039452;29;20068;-86
2022/01/26 12:50:18;;;;;;;88.53;28.25;;;;;;;2.21;100.00;101957.03;6041217;29;20052;-86
2022/01/26 12:53:32;;;;;;;91.05;29.75;;;;;;;2.22;100.00;101968.94;6044310;29;20053;-86
2022/01/26 12:56:34;;;;;;;81.80;25.42;;;;;;;2.29;100.00;101960.28;6044515;29;20044;-86
2022/01/26 12:59:36;;;;;;;85.15;26.80;;;;;;;2.31;100.00;101952.56;6048474;29;20060;-86
2022/01/26 13:02:38;;;;;;;81.03;28.10;;;;;;;2.21;100.00;101957.03;6048679;29;20048;-86
2022/01/26 13:05:41;;;;;;;90.55;29.20;;;;;;;2.24;100.00;101945.91;6044518;29;20080;-86
2022/01/26 13:09:26;;;;;;;82.32;27.98;;;;;;;2.21;100.00;101938.31;6047611;29;20612;-86
2022/01/26 13:12:53;;;;;;;79.93;27.10;;;;;;;2.12;100.00;101939.34;5978143;29;20467;-86
2022/01/26 13:16:07;;;;;;;82.43;26.08;;;;;;;2.21;100.00;101940.84;5997275;29;20049;-86
2022/01/26 13:23:28;;;;;;;;;;;;;;;2.14;100.00;101933.34;5995956;29;20680;-86
2022/01/26 13:26:26;;;;;;;87.22;27.85;;;;;;;2.13;100.00;101925.69;5997737;29;20112;-86
2022/01/26 13:29:46;;;;;;;75.50;26.20;;;;;;;2.11;100.00;101932.53;5994146;29;20065;-87
2022/01/26 13:37:51;;;;;;;77.35;25.02;;;;;;;2.00;100.00;101930.22;5995361;29;20064;-86
2022/01/26 13:40:52;;;;;;;91.38;28.45;;;;;;;2.04;100.00;101938.69;5992443;29;20337;-86
2022/01/26 14:01:43;;;;;;;95.18;27.98;;;;;;;2.02;100.00;101918.25;6039259;29;20286;-86
2022/01/26 14:04:45;;;;;;;92.55;29.38;;;;;;;2.01;100.00;101924.22;6038926;29;20045;-87
2022/01/26 14:07:47;;;;;;;97.50;29.05;;;;;;;1.96;100.00;101925.19;6045633;29;20053;-86
2022/01/26 14:10:49;;;;;;;88.00;27.88;;;;;;;1.98;100.00;101928.56;6043563;29;20522;-86
2022/01/26 14:13:55;;;;;;;93.70;29.25;;;;;;;1.96;100.00;101925.19;6044792;29;20135;-86
2022/01/26 14:17:40;;;;;;;91.47;29.63;;;;;;;1.97;100.00;101929.47;6044004;29;20045;-87
2022/01/26 14:24:26;;;;;;;87.97;26.48;;;;;;;1.98;100.00;101926.84;6044806;29;20053;-87
2022/01/26 14:27:37;;;;;;;86.65;27.73;;;;;;;2.02;100.00;101930.19;6037063;29;20045;-87
2022/01/26 14:34:44;;;;;;;88.45;27.00;;;;;;;1.93;100.00;101921.00;6043305;29;20490;-86
2022/01/26 15:35:00;;;;;;;68.82;20.65;;;;;;;1.67;100.00;101885.81;6040881;29;20068;-87
2022/01/26 15:48:43;;;;;;;65.82;20.83;;;;;;;1.79;100.00;101895.78;6041206;29;20068;-88
2022/01/26 16:26:42;;;;;;;55.20;17.63;;;;;;;1.77;100.00;101846.44;6043530;29;20049;-88
2022/01/26 16:52:29;;;;;;;52.97;17.38;;;;;;;1.93;100.00;101862.28;6046679;29;20052;-87
2022/01/26 18:04:42;;;;;;;42.45;14.40;;;;;;;1.84;100.00;101799.50;6042193;29;20045;-87
2022/01/26 18:50:21;;;;;;;36.45;13.63;;;;;;;2.03;100.00;101765.88;6011845;29;20523;-88
2022/01/26 18:53:41;;;;;;;32.85;12.63;;;;;;;2.04;100.00;101777.78;6001595;29;20053;-88
2022/01/26 18:57:20;;;;;;;37.90;13.27;;;;;;;2.06;100.00;101778.56;6041805;29;20131;-88
2022/01/26 19:00:22;;;;;;;33.05;11.65;;;;;;;2.13;100.00;101778.38;6040475;29;20052;-88
2022/01/26 19:03:24;;;;;;;28.45;11.35;;;;;;;2.18;100.00;101774.91;6043859;29;20503;-88
2022/01/26 19:06:26;;;;;;;35.33;12.18;;;;;;;2.00;100.00;101773.63;6044244;29;20068;-88
2022/01/26 19:09:33;;;;;;;34.15;12.63;;;;;;;2.06;100.00;101768.34;6030860;29;20110;-88
2022/01/26 19:12:37;;;;;;;32.95;11.02;;;;;;;2.04;100.00;101772.69;6035833;29;20061;-88
2022/01/26 19:15:45;;;;;;;29.98;12.52;;;;;;;2.03;100.00;101769.25;6043450;29;20108;-88
2022/01/26 19:18:58;;;;;;;30.70;11.63;;;;;;;1.93;100.00;101768.63;6032584;29;20056;-88
2022/01/26 19:25:48;;;;;;;31.07;12.30;;;;;;;1.93;100.00;101767.81;6029827;29;20723;-88
2022/01/26 19:28:58;;;;;;;32.33;12.87;;;;;;;1.88;100.00;101777.28;6038374;29;21183;-88
2022/01/26 19:45:32;;;;;;;29.00;11.27;;;;;;;1.96;100.00;101731.16;6039939;29;20037;-88
2022/01/26 19:52:06;;;;;;;28.20;10.77;;;;;;;1.97;100.00;101736.22;6029635;29;20049;-88
2022/01/26 19:55:16;;;;;;;28.25;12.27;;;;;;;2.03;100.00;101725.03;6032853;29;20056;-88
2022/01/26 19:58:17;;;;;;;35.60;12.88;;;;;;;2.00;100.00;101720.00;6028115;29;20472;-88
2022/01/26 20:01:21;;;;;;;28.40;12.52;;;;;;;2.05;100.00;101726.66;6032591;29;20420;-88
2022/01/26 20:04:31;;;;;;;27.37;11.30;;;;;;;2.14;100.00;101723.06;6038135;29;20060;-88
2022/01/26 20:07:33;;;;;;;30.77;11.73;;;;;;;2.14;100.00;101718.78;6042144;29;20352;-89
2022/01/26 20:10:41;;;;;;;30.63;12.63;;;;;;;2.25;100.00;101726.16;6039758;29;20069;-89
2022/01/26 20:13:44;;;;;;;33.30;13.75;;;;;;;2.25;100.00;101721.06;6033052;29;20314;-89
2022/01/26 20:16:46;;;;;;;35.50;13.52;;;;;;;2.25;100.00;101722.78;6029508;29;20411;-89
2022/01/26 20:19:48;;;;;;;30.40;12.70;;;;;;;2.26;100.00;101716.78;6041737;29;20301;-89
2022/01/26 20:22:54;;;;;;;36.15;14.43;;;;;;;2.26;100.00;101709.13;6041384;29;20084;-88
2022/01/26 20:25:59;;;;;;;36.83;13.55;;;;;;;2.26;100.00;101698.91;6036501;29;20496;-88
2022/01/26 20:29:01;;;;;;;30.83;14.00;;;;;;;2.25;100.00;101710.00;6040482;29;20050;-88
2022/01/26 20:32:05;;;;;;;35.08;13.10;;;;;;;2.24;100.00;101708.34;6024403;29;20050;-88
2022/01/26 20:35:09;;;;;;;30.05;12.55;;;;;;;2.28;100.00;101715.88;6044615;29;20057;-88
2022/01/26 20:38:11;;;;;;;29.77;12.38;;;;;;;2.32;100.00;101706.44;6043754;29;20045;-89
2022/01/26 20:41:14;;;;;;;24.25;11.27;;;;;;;2.32;100.00;101699.59;6034796;29;20119;-89
2022/01/26 20:44:18;;;;;;;27.20;11.25;;;;;;;2.37;100.00;101694.38;6044523;29;20055;-88
2022/01/26 20:47:21;;;;;;;29.15;12.40;;;;;;;2.37;100.00;101691.81;6036034;29;20050;-89
2022/01/26 20:50:25;;;;;;;21.67;9.40;;;;;;;2.42;100.00;101692.53;6036813;29;20097;-89
2022/01/26 20:53:27;;;;;;;22.30;10.23;;;;;;;2.31;100.00;101691.97;6047911;29;20045;-88
2022/01/26 20:56:29;;;;;;;23.80;10.02;;;;;;;2.41;100.00;101690.00;6040219;29;20049;-88
2022/01/26 20:59:32;;;;;;;21.75;10.20;;;;;;;2.34;100.00;101679.97;6037896;29;20648;-88
2022/01/26 21:02:34;;;;;;;19.13;9.63;;;;;;;2.35;100.00;101686.75;6042615;29;20474;-88
2022/01/26 21:05:37;;;;;;;23.88;10.23;;;;;;;2.30;100.00;101682.63;6043250;29;20049;-88
2022/01/26 21:08:40;;;;;;;22.08;10.18;;;;;;;2.30;100.00;101677.53;6034472;29;20041;-88
2022/01/26 21:11:42;;;;;;;23.15;9.50;;;;;;;2.29;100.00;101674.13;6042264;29;20065;-88
2022/01/26 21:14:44;;;;;;;24.23;11.05;;;;;;;2.34;100.00;101674.84;6035740;29;20053;-88
2022/01/26 21:17:47;;;;;;;26.02;10.45;;;;;;;2.39;100.00;101679.00;6046185;29;20109;-89
2022/01/26 21:20:53;;;;;;;23.67;11.30;;;;;;;2.36;100.00;101675.66;6035721;29;20045;-89
2022/01/26 21:23:55;;;;;;;20.63;9.88;;;;;;;2.33;100.00;101683.38;6030301;29;20057;-89
2022/01/26 21:27:04;;;;;;;23.75;10.82;;;;;;;2.31;100.00;101674.94;6053960;29;20091;-89
2022/01/26 21:30:08;;;;;;;20.08;10.95;;;;;;;2.32;100.00;101680.88;6043085;29;20045;-88
2022/01/26 21:33:12;;;;;;;25.42;10.82;;;;;;;2.32;100.00;101688.53;6046710;29;20040;-88
2022/01/26 21:36:15;;;;;;;19.35;10.10;;;;;;;2.45;100.00;101683.94;6032233;29;20049;-88
2022/01/26 21:39:18;;;;;;;21.88;10.15;;;;;;;2.50;100.00;101694.88;6034759;29;20562;-89
2022/01/26 21:42:21;;;;;;;23.83;10.68;;;;;;;2.51;100.00;101676.09;6035269;29;20839;-89
2022/01/26 21:45:23;;;;;;;23.75;10.35;;;;;;;2.49;100.00;101671.06;6044359;29;20507;-88
2022/01/26 21:48:25;;;;;;;24.95;11.20;;;;;;;2.53;100.00;101674.34;6044316;29;20044;-88
2022/01/26 21:51:28;;;;;;;25.77;11.68;;;;;;;2.54;100.00;101668.38;6033807;29;20039;-88
2022/01/26 21:54:30;;;;;;;27.92;12.13;;;;;;;2.53;100.00;101674.34;6036406;29;20597;-88
2022/01/26 21:57:32;;;;;;;26.98;12.30;;;;;;;2.56;100.00;101664.91;6046503;29;20143;-88